Terminal Aerodrome Forecast
Issued by NWS Cleveland, OH

Home | Current Version | Previous Version | Graphics & Text | Print | Product List | Glossary Off
Versions: 1 2 3 4 5 6 7 8 9 10 11 12 13 14 15 16 17 18 19 20 21 22 23 24 25 26 27

000
FTUS41 KCLE 040000 AAA
TAFTOL
TAF AMD
KTOL 040049Z 0401/0424 26015G25KT P6SM OVC012
     FM040600 29009KT 6SM BR OVC015
     FM041900 29012KT P6SM OVC050
     FM042200 29012KT P6SM BKN250=

USA.gov is the U.S. government's official web portal to all federal, state and local government web resources and services.